sensor_id;sensor_type;location;lat;lon;timestamp;P1;durP1;ratioP1;P2;durP2;ratioP2
44730;SDS011;30458;47.448;19.032;2022-09-09T00:09:00;823.15;;;750.00;;
44730;SDS011;30458;47.448;19.032;2022-09-09T00:19:22;809.88;;;746.35;;
44730;SDS011;30458;47.448;19.032;2022-09-09T00:39:46;853.15;;;775.38;;
44730;SDS011;30458;47.448;19.032;2022-09-09T01:00:19;701.72;;;644.28;;
44730;SDS011;30458;47.448;19.032;2022-09-09T01:10:24;848.90;;;783.50;;
44730;SDS011;30458;47.448;19.032;2022-09-09T01:20:49;731.63;;;673.17;;
44730;SDS011;30458;47.448;19.032;2022-09-09T01:31:00;800.47;;;740.35;;
44730;SDS011;30458;47.448;19.032;2022-09-09T01:41:11;766.83;;;710.10;;
44730;SDS011;30458;47.448;19.032;2022-09-09T01:51:19;974.40;;;881.13;;
44730;SDS011;30458;47.448;19.032;2022-09-09T02:01:33;731.78;;;673.08;;
44730;SDS011;30458;47.448;19.032;2022-09-09T02:11:46;730.88;;;667.03;;
44730;SDS011;30458;47.448;19.032;2022-09-09T02:21:57;918.85;;;841.60;;
44730;SDS011;30458;47.448;19.032;2022-09-09T02:32:02;766.15;;;706.10;;
44730;SDS011;30458;47.448;19.032;2022-09-09T02:42:10;992.45;;;903.50;;
44730;SDS011;30458;47.448;19.032;2022-09-09T02:52:14;760.65;;;699.50;;
44730;SDS011;30458;47.448;19.032;2022-09-09T03:02:21;839.05;;;769.47;;
44730;SDS011;30458;47.448;19.032;2022-09-09T03:12:27;926.25;;;847.20;;
44730;SDS011;30458;47.448;19.032;2022-09-09T03:22:32;948.88;;;860.90;;
44730;SDS011;30458;47.448;19.032;2022-09-09T03:32:34;886.85;;;805.20;;
44730;SDS011;30458;47.448;19.032;2022-09-09T03:42:36;780.00;;;707.80;;
44730;SDS011;30458;47.448;19.032;2022-09-09T03:52:40;778.38;;;707.03;;
44730;SDS011;30458;47.448;19.032;2022-09-09T04:02:54;931.78;;;857.65;;
44730;SDS011;30458;47.448;19.032;2022-09-09T04:12:57;787.67;;;732.35;;
44730;SDS011;30458;47.448;19.032;2022-09-09T04:23:00;771.75;;;717.75;;
44730;SDS011;30458;47.448;19.032;2022-09-09T04:33:02;827.42;;;756.08;;
44730;SDS011;30458;47.448;19.032;2022-09-09T04:43:07;867.22;;;799.08;;
44730;SDS011;30458;47.448;19.032;2022-09-09T04:53:08;684.38;;;635.45;;
44730;SDS011;30458;47.448;19.032;2022-09-09T05:03:11;829.72;;;771.22;;
44730;SDS011;30458;47.448;19.032;2022-09-09T05:13:14;783.55;;;729.13;;
44730;SDS011;30458;47.448;19.032;2022-09-09T05:23:15;750.55;;;695.90;;
44730;SDS011;30458;47.448;19.032;2022-09-09T05:33:17;936.70;;;850.17;;
44730;SDS011;30458;47.448;19.032;2022-09-09T05:43:19;974.67;;;884.00;;
44730;SDS011;30458;47.448;19.032;2022-09-09T05:53:25;1163.57;;;945.00;;
44730;SDS011;30458;47.448;19.032;2022-09-09T06:03:37;1021.90;;;925.88;;
44730;SDS011;30458;47.448;19.032;2022-09-09T06:13:42;996.58;;;828.45;;
44730;SDS011;30458;47.448;19.032;2022-09-09T06:23:43;893.13;;;797.17;;
44730;SDS011;30458;47.448;19.032;2022-09-09T06:33:46;890.33;;;662.08;;
44730;SDS011;30458;47.448;19.032;2022-09-09T06:43:49;1999.90;;;999.90;;
44730;SDS011;30458;47.448;19.032;2022-09-09T06:53:52;662.55;;;372.35;;
44730;SDS011;30458;47.448;19.032;2022-09-09T07:03:58;1999.90;;;999.90;;
44730;SDS011;30458;47.448;19.032;2022-09-09T07:14:06;1999.90;;;999.90;;
44730;SDS011;30458;47.448;19.032;2022-09-09T07:24:08;1999.90;;;999.90;;
44730;SDS011;30458;47.448;19.032;2022-09-09T07:34:10;1999.90;;;999.90;;
44730;SDS011;30458;47.448;19.032;2022-09-09T07:44:15;894.00;;;777.75;;
44730;SDS011;30458;47.448;19.032;2022-09-09T07:54:23;931.85;;;843.17;;
44730;SDS011;30458;47.448;19.032;2022-09-09T08:04:27;1204.87;;;927.03;;
44730;SDS011;30458;47.448;19.032;2022-09-09T08:14:30;1528.88;;;846.05;;
44730;SDS011;30458;47.448;19.032;2022-09-09T08:24:34;835.60;;;744.67;;
44730;SDS011;30458;47.448;19.032;2022-09-09T08:34:36;639.20;;;587.03;;
44730;SDS011;30458;47.448;19.032;2022-09-09T08:54:51;850.30;;;772.35;;
44730;SDS011;30458;47.448;19.032;2022-09-09T09:04:59;696.58;;;624.17;;
44730;SDS011;30458;47.448;19.032;2022-09-09T09:15:21;1999.90;;;909.67;;
44730;SDS011;30458;47.448;19.032;2022-09-09T09:25:35;1999.90;;;999.90;;
44730;SDS011;30458;47.448;19.032;2022-09-09T09:35:43;1805.32;;;793.60;;
44730;SDS011;30458;47.448;19.032;2022-09-09T09:45:48;1999.90;;;901.75;;
44730;SDS011;30458;47.448;19.032;2022-09-09T09:55:56;1673.53;;;874.80;;
44730;SDS011;30458;47.448;19.032;2022-09-09T10:06:04;1542.35;;;798.63;;
44730;SDS011;30458;47.448;19.032;2022-09-09T10:37:00;888.22;;;809.22;;
44730;SDS011;30458;47.448;19.032;2022-09-09T10:57:31;886.10;;;810.17;;
44730;SDS011;30458;47.448;19.032;2022-09-09T11:40:31;980.67;;;888.75;;
44730;SDS011;30458;47.448;19.032;2022-09-09T11:50:36;989.85;;;895.95;;
44730;SDS011;30458;47.448;19.032;2022-09-09T12:00:42;886.25;;;810.67;;
44730;SDS011;30458;47.448;19.032;2022-09-09T12:10:52;899.47;;;805.97;;
44730;SDS011;30458;47.448;19.032;2022-09-09T12:31:43;1213.07;;;907.00;;
44730;SDS011;30458;47.448;19.032;2022-09-09T12:41:51;811.03;;;728.17;;
44730;SDS011;30458;47.448;19.032;2022-09-09T12:51:56;1005.97;;;808.45;;
44730;SDS011;30458;47.448;19.032;2022-09-09T13:01:58;978.13;;;801.30;;
44730;SDS011;30458;47.448;19.032;2022-09-09T13:12:02;1292.07;;;858.90;;
44730;SDS011;30458;47.448;19.032;2022-09-09T13:32:17;1238.55;;;865.35;;
44730;SDS011;30458;47.448;19.032;2022-09-09T13:42:24;974.58;;;883.17;;
44730;SDS011;30458;47.448;19.032;2022-09-09T13:52:30;885.67;;;804.90;;
44730;SDS011;30458;47.448;19.032;2022-09-09T14:02:31;802.75;;;741.13;;
44730;SDS011;30458;47.448;19.032;2022-09-09T14:12:32;836.08;;;771.88;;
44730;SDS011;30458;47.448;19.032;2022-09-09T14:22:35;820.08;;;752.35;;
44730;SDS011;30458;47.448;19.032;2022-09-09T14:32:36;858.60;;;790.50;;
44730;SDS011;30458;47.448;19.032;2022-09-09T14:42:40;918.05;;;838.85;;
44730;SDS011;30458;47.448;19.032;2022-09-09T14:52:41;910.55;;;832.17;;
44730;SDS011;30458;47.448;19.032;2022-09-09T15:02:42;860.75;;;792.80;;
44730;SDS011;30458;47.448;19.032;2022-09-09T15:12:47;894.95;;;822.75;;
44730;SDS011;30458;47.448;19.032;2022-09-09T15:22:48;854.23;;;782.67;;
44730;SDS011;30458;47.448;19.032;2022-09-09T15:32:52;842.42;;;776.67;;
44730;SDS011;30458;47.448;19.032;2022-09-09T15:42:53;880.33;;;809.95;;
44730;SDS011;30458;47.448;19.032;2022-09-09T15:52:54;850.40;;;782.27;;
44730;SDS011;30458;47.448;19.032;2022-09-09T16:02:58;890.20;;;819.05;;
44730;SDS011;30458;47.448;19.032;2022-09-09T16:13:01;879.22;;;797.20;;
44730;SDS011;30458;47.448;19.032;2022-09-09T16:23:02;874.85;;;792.80;;
44730;SDS011;30458;47.448;19.032;2022-09-09T16:33:05;887.22;;;797.53;;
44730;SDS011;30458;47.448;19.032;2022-09-09T16:43:10;1080.50;;;842.30;;
44730;SDS011;30458;47.448;19.032;2022-09-09T16:53:12;1065.15;;;841.72;;
44730;SDS011;30458;47.448;19.032;2022-09-09T17:03:16;1820.03;;;961.00;;
44730;SDS011;30458;47.448;19.032;2022-09-09T17:13:17;1999.90;;;999.90;;
44730;SDS011;30458;47.448;19.032;2022-09-09T17:23:22;1999.90;;;999.90;;
44730;SDS011;30458;47.448;19.032;2022-09-09T17:33:23;1991.63;;;999.90;;
44730;SDS011;30458;47.448;19.032;2022-09-09T17:43:26;1999.90;;;999.90;;
44730;SDS011;30458;47.448;19.032;2022-09-09T17:53:27;1999.90;;;999.90;;
44730;SDS011;30458;47.448;19.032;2022-09-09T18:03:28;1999.90;;;893.75;;
44730;SDS011;30458;47.448;19.032;2022-09-09T18:13:31;1999.90;;;881.03;;
44730;SDS011;30458;47.448;19.032;2022-09-09T18:23:35;1999.90;;;881.75;;
44730;SDS011;30458;47.448;19.032;2022-09-09T18:33:43;1999.90;;;846.45;;
44730;SDS011;30458;47.448;19.032;2022-09-09T18:43:51;1999.90;;;758.00;;
44730;SDS011;30458;47.448;19.032;2022-09-09T18:53:58;1999.90;;;999.90;;
44730;SDS011;30458;47.448;19.032;2022-09-09T19:04:00;1999.90;;;999.90;;
44730;SDS011;30458;47.448;19.032;2022-09-09T19:14:04;1999.90;;;999.90;;
44730;SDS011;30458;47.448;19.032;2022-09-09T19:24:18;1999.90;;;999.90;;
44730;SDS011;30458;47.448;19.032;2022-09-09T19:34:23;1999.90;;;999.90;;
44730;SDS011;30458;47.448;19.032;2022-09-09T19:44:26;1999.90;;;999.90;;
44730;SDS011;30458;47.448;19.032;2022-09-09T19:54:27;1999.90;;;999.90;;
44730;SDS011;30458;47.448;19.032;2022-09-09T20:04:33;1999.90;;;999.90;;
44730;SDS011;30458;47.448;19.032;2022-09-09T20:14:34;1999.90;;;999.90;;
44730;SDS011;30458;47.448;19.032;2022-09-09T20:24:35;1999.90;;;999.90;;
44730;SDS011;30458;47.448;19.032;2022-09-09T20:34:36;1999.90;;;999.90;;
44730;SDS011;30458;47.448;19.032;2022-09-09T20:44:36;975.15;;;667.85;;
44730;SDS011;30458;47.448;19.032;2022-09-09T20:54:39;1130.32;;;918.70;;
44730;SDS011;30458;47.448;19.032;2022-09-09T21:04:43;1050.82;;;923.35;;
44730;SDS011;30458;47.448;19.032;2022-09-09T21:14:47;948.30;;;848.03;;
44730;SDS011;30458;47.448;19.032;2022-09-09T21:24:50;963.38;;;868.70;;
44730;SDS011;30458;47.448;19.032;2022-09-09T21:34:53;1019.38;;;917.65;;
44730;SDS011;30458;47.448;19.032;2022-09-09T21:44:56;1158.78;;;971.40;;
44730;SDS011;30458;47.448;19.032;2022-09-09T21:54:59;1219.70;;;999.90;;
44730;SDS011;30458;47.448;19.032;2022-09-09T22:05:02;1143.50;;;999.90;;
44730;SDS011;30458;47.448;19.032;2022-09-09T22:15:05;1170.15;;;999.90;;
44730;SDS011;30458;47.448;19.032;2022-09-09T22:25:12;791.92;;;720.25;;
44730;SDS011;30458;47.448;19.032;2022-09-09T22:35:15;1081.68;;;975.83;;
44730;SDS011;30458;47.448;19.032;2022-09-09T22:45:16;1104.80;;;997.72;;
44730;SDS011;30458;47.448;19.032;2022-09-09T22:55:17;938.05;;;864.38;;
44730;SDS011;30458;47.448;19.032;2022-09-09T23:05:21;1125.95;;;999.90;;
44730;SDS011;30458;47.448;19.032;2022-09-09T23:15:25;855.25;;;783.15;;
44730;SDS011;30458;47.448;19.032;2022-09-09T23:25:28;698.58;;;640.53;;
44730;SDS011;30458;47.448;19.032;2022-09-09T23:35:28;791.20;;;721.83;;
44730;SDS011;30458;47.448;19.032;2022-09-09T23:45:31;917.92;;;843.85;;
44730;SDS011;30458;47.448;19.032;2022-09-09T23:55:35;920.22;;;841.65;;
